sensor_id;sensor_type;location;lat;lon;timestamp;pressure;altitude;pressure_sealevel;temperature;humidity
46111;BME280;31849;55.992;37.252;2023-01-16T00:04:53;99161.84;;;-2.71;62.36
46111;BME280;31849;55.992;37.252;2023-01-16T00:09:56;99154.19;;;-2.91;62.83
46111;BME280;31849;55.992;37.252;2023-01-16T00:15:00;99150.97;;;-3.05;63.07
46111;BME280;31849;55.992;37.252;2023-01-16T00:20:07;99120.19;;;-3.11;62.93
46111;BME280;31849;55.992;37.252;2023-01-16T00:25:11;99135.69;;;-2.87;62.40
46111;BME280;31849;55.992;37.252;2023-01-16T00:30:15;99145.91;;;-3.05;62.56
46111;BME280;31849;55.992;37.252;2023-01-16T00:35:20;99137.41;;;-3.05;62.95
46111;BME280;31849;55.992;37.252;2023-01-16T00:40:23;99143.94;;;-2.92;62.56
46111;BME280;31849;55.992;37.252;2023-01-16T00:45:27;99130.91;;;-2.98;62.71
46111;BME280;31849;55.992;37.252;2023-01-16T00:50:32;99102.28;;;-2.94;62.44
46111;BME280;31849;55.992;37.252;2023-01-16T00:55:36;99111.78;;;-2.90;62.73
46111;BME280;31849;55.992;37.252;2023-01-16T01:00:39;99113.41;;;-2.92;62.78
46111;BME280;31849;55.992;37.252;2023-01-16T01:05:45;99089.41;;;-2.97;62.25
46111;BME280;31849;55.992;37.252;2023-01-16T01:10:49;99102.66;;;-3.05;62.87
46111;BME280;31849;55.992;37.252;2023-01-16T01:15:53;99081.94;;;-2.94;62.07
46111;BME280;31849;55.992;37.252;2023-01-16T01:20:58;99084.59;;;-2.91;62.70
46111;BME280;31849;55.992;37.252;2023-01-16T01:26:06;99071.53;;;-2.99;62.69
46111;BME280;31849;55.992;37.252;2023-01-16T01:31:11;99051.31;;;-3.15;62.46
46111;BME280;31849;55.992;37.252;2023-01-16T01:36:16;99075.69;;;-3.21;63.30
46111;BME280;31849;55.992;37.252;2023-01-16T01:41:20;99074.47;;;-3.09;62.92
46111;BME280;31849;55.992;37.252;2023-01-16T01:46:27;99072.47;;;-2.97;62.70
46111;BME280;31849;55.992;37.252;2023-01-16T01:51:38;99080.78;;;-3.01;63.41
46111;BME280;31849;55.992;37.252;2023-01-16T01:56:47;99073.97;;;-3.02;63.17
46111;BME280;31849;55.992;37.252;2023-01-16T02:01:52;99072.13;;;-3.05;63.16
46111;BME280;31849;55.992;37.252;2023-01-16T02:06:59;99070.03;;;-3.13;63.17
46111;BME280;31849;55.992;37.252;2023-01-16T02:12:07;99061.81;;;-3.08;63.16
46111;BME280;31849;55.992;37.252;2023-01-16T02:17:13;99065.03;;;-3.12;63.13
46111;BME280;31849;55.992;37.252;2023-01-16T02:34:08;99049.00;;;-3.29;63.77
46111;BME280;31849;55.992;37.252;2023-01-16T02:39:24;99044.81;;;-3.09;63.04
46111;BME280;31849;55.992;37.252;2023-01-16T02:44:38;99022.56;;;-2.95;62.97
46111;BME280;31849;55.992;37.252;2023-01-16T02:49:48;99030.72;;;-3.40;64.41
46111;BME280;31849;55.992;37.252;2023-01-16T02:54:59;99022.41;;;-3.17;63.81
46111;BME280;31849;55.992;37.252;2023-01-16T03:00:07;99023.09;;;-3.02;63.50
46111;BME280;31849;55.992;37.252;2023-01-16T03:05:13;99022.88;;;-3.07;63.62
46111;BME280;31849;55.992;37.252;2023-01-16T03:10:28;99027.19;;;-3.06;63.56
46111;BME280;31849;55.992;37.252;2023-01-16T03:15:39;99018.97;;;-3.18;63.79
46111;BME280;31849;55.992;37.252;2023-01-16T03:20:54;99008.97;;;-2.95;63.24
46111;BME280;31849;55.992;37.252;2023-01-16T03:26:02;99011.78;;;-2.70;62.40
46111;BME280;31849;55.992;37.252;2023-01-16T03:31:12;99021.69;;;-2.76;62.64
46111;BME280;31849;55.992;37.252;2023-01-16T03:36:23;99052.41;;;-2.91;62.86
46111;BME280;31849;55.992;37.252;2023-01-16T03:41:29;99022.63;;;-2.74;62.94
46111;BME280;31849;55.992;37.252;2023-01-16T03:46:39;99014.19;;;-2.73;62.72
46111;BME280;31849;55.992;37.252;2023-01-16T03:51:49;99000.13;;;-2.84;62.72
46111;BME280;31849;55.992;37.252;2023-01-16T03:56:58;98998.50;;;-3.02;63.31
46111;BME280;31849;55.992;37.252;2023-01-16T04:02:06;98998.25;;;-2.88;63.05
46111;BME280;31849;55.992;37.252;2023-01-16T04:07:20;98994.91;;;-3.07;63.51
46111;BME280;31849;55.992;37.252;2023-01-16T04:12:28;99007.22;;;-3.16;63.89
46111;BME280;31849;55.992;37.252;2023-01-16T04:17:34;98990.63;;;-3.08;63.66
46111;BME280;31849;55.992;37.252;2023-01-16T04:22:40;98978.56;;;-3.12;63.54
46111;BME280;31849;55.992;37.252;2023-01-16T04:27:43;98977.28;;;-3.22;63.81
46111;BME280;31849;55.992;37.252;2023-01-16T04:32:47;98973.06;;;-3.02;63.65
46111;BME280;31849;55.992;37.252;2023-01-16T04:37:52;98973.53;;;-3.10;63.71
46111;BME280;31849;55.992;37.252;2023-01-16T04:42:55;98973.75;;;-3.06;63.67
46111;BME280;31849;55.992;37.252;2023-01-16T04:47:59;98960.91;;;-2.89;63.19
46111;BME280;31849;55.992;37.252;2023-01-16T04:53:04;98943.88;;;-2.90;62.88
46111;BME280;31849;55.992;37.252;2023-01-16T04:58:07;98959.44;;;-3.04;63.79
46111;BME280;31849;55.992;37.252;2023-01-16T05:03:11;98957.09;;;-3.19;64.04
46111;BME280;31849;55.992;37.252;2023-01-16T05:08:16;98947.44;;;-3.06;63.88
46111;BME280;31849;55.992;37.252;2023-01-16T05:13:20;98950.66;;;-3.10;63.68
46111;BME280;31849;55.992;37.252;2023-01-16T05:18:24;98942.41;;;-3.05;63.71
46111;BME280;31849;55.992;37.252;2023-01-16T05:23:29;98941.50;;;-3.07;63.80
46111;BME280;31849;55.992;37.252;2023-01-16T05:28:33;98946.38;;;-2.92;63.19
46111;BME280;31849;55.992;37.252;2023-01-16T05:33:37;98952.53;;;-3.06;63.80
46111;BME280;31849;55.992;37.252;2023-01-16T05:38:42;98934.50;;;-2.91;63.22
46111;BME280;31849;55.992;37.252;2023-01-16T05:43:45;98946.97;;;-2.97;63.23
46111;BME280;31849;55.992;37.252;2023-01-16T05:48:49;98944.69;;;-3.11;63.89
46111;BME280;31849;55.992;37.252;2023-01-16T05:53:54;98940.53;;;-3.09;63.75
46111;BME280;31849;55.992;37.252;2023-01-16T05:58:58;98944.03;;;-3.07;63.86
46111;BME280;31849;55.992;37.252;2023-01-16T06:04:01;98947.44;;;-3.06;63.51
46111;BME280;31849;55.992;37.252;2023-01-16T06:09:06;98955.78;;;-3.48;65.28
46111;BME280;31849;55.992;37.252;2023-01-16T06:14:10;98961.28;;;-3.39;64.79
46111;BME280;31849;55.992;37.252;2023-01-16T06:19:13;98962.91;;;-3.21;64.24
46111;BME280;31849;55.992;37.252;2023-01-16T06:24:18;98957.16;;;-3.37;64.56
46111;BME280;31849;55.992;37.252;2023-01-16T06:29:22;98961.72;;;-3.47;64.71
46111;BME280;31849;55.992;37.252;2023-01-16T06:34:25;98950.06;;;-3.24;64.23
46111;BME280;31849;55.992;37.252;2023-01-16T06:39:30;98962.69;;;-3.26;64.63
46111;BME280;31849;55.992;37.252;2023-01-16T06:44:34;98966.53;;;-3.16;64.70
46111;BME280;31849;55.992;37.252;2023-01-16T06:49:37;98957.69;;;-3.24;64.45
46111;BME280;31849;55.992;37.252;2023-01-16T06:54:43;98968.88;;;-3.58;64.67
46111;BME280;31849;55.992;37.252;2023-01-16T06:59:46;98973.72;;;-3.45;65.08
46111;BME280;31849;55.992;37.252;2023-01-16T07:04:52;98962.88;;;-3.41;64.98
46111;BME280;31849;55.992;37.252;2023-01-16T07:09:57;98956.63;;;-3.29;64.62
46111;BME280;31849;55.992;37.252;2023-01-16T07:15:04;98953.06;;;-3.71;65.04
46111;BME280;31849;55.992;37.252;2023-01-16T07:20:25;98962.81;;;-3.03;63.68
46111;BME280;31849;55.992;37.252;2023-01-16T07:25:48;98975.94;;;-3.13;63.38
46111;BME280;31849;55.992;37.252;2023-01-16T07:30:54;98954.81;;;-3.12;64.04
46111;BME280;31849;55.992;37.252;2023-01-16T07:35:59;98963.69;;;-3.22;63.92
46111;BME280;31849;55.992;37.252;2023-01-16T07:41:04;98955.06;;;-3.26;64.20
46111;BME280;31849;55.992;37.252;2023-01-16T07:46:08;98954.66;;;-3.35;64.03
46111;BME280;31849;55.992;37.252;2023-01-16T07:51:11;98960.22;;;-3.44;64.41
46111;BME280;31849;55.992;37.252;2023-01-16T07:56:16;98981.13;;;-3.49;64.49
46111;BME280;31849;55.992;37.252;2023-01-16T08:01:23;98963.47;;;-3.46;63.94
46111;BME280;31849;55.992;37.252;2023-01-16T08:06:26;98964.38;;;-3.46;64.05
46111;BME280;31849;55.992;37.252;2023-01-16T08:11:31;98955.91;;;-3.07;63.52
46111;BME280;31849;55.992;37.252;2023-01-16T08:16:41;98934.59;;;-3.09;63.14
46111;BME280;31849;55.992;37.252;2023-01-16T08:21:45;98941.38;;;-3.29;63.65
46111;BME280;31849;55.992;37.252;2023-01-16T08:26:50;98936.34;;;-3.28;63.49
46111;BME280;31849;55.992;37.252;2023-01-16T08:31:54;98934.41;;;-3.33;63.43
46111;BME280;31849;55.992;37.252;2023-01-16T08:36:57;98913.72;;;-3.22;63.52
46111;BME280;31849;55.992;37.252;2023-01-16T08:42:03;98909.38;;;-3.24;63.05
46111;BME280;31849;55.992;37.252;2023-01-16T08:47:24;98929.88;;;-3.59;63.91
46111;BME280;31849;55.992;37.252;2023-01-16T08:52:45;98907.69;;;-3.24;63.21
46111;BME280;31849;55.992;37.252;2023-01-16T08:57:50;98911.53;;;-3.33;63.05
46111;BME280;31849;55.992;37.252;2023-01-16T09:02:54;98920.84;;;-3.52;64.00
46111;BME280;31849;55.992;37.252;2023-01-16T09:08:00;98926.13;;;-3.29;63.35
46111;BME280;31849;55.992;37.252;2023-01-16T09:13:05;98929.19;;;-3.37;63.73
46111;BME280;31849;55.992;37.252;2023-01-16T09:18:29;98911.25;;;-3.40;64.00
46111;BME280;31849;55.992;37.252;2023-01-16T09:23:32;98908.66;;;-3.41;63.54
46111;BME280;31849;55.992;37.252;2023-01-16T09:28:37;98892.16;;;-3.30;63.46
46111;BME280;31849;55.992;37.252;2023-01-16T09:33:41;98890.53;;;-3.29;63.75
46111;BME280;31849;55.992;37.252;2023-01-16T09:38:45;98881.53;;;-3.21;63.39
46111;BME280;31849;55.992;37.252;2023-01-16T09:43:50;98901.09;;;-3.20;63.64
46111;BME280;31849;55.992;37.252;2023-01-16T09:48:56;98899.53;;;-3.36;64.27
46111;BME280;31849;55.992;37.252;2023-01-16T09:54:04;98903.50;;;-3.43;64.47
46111;BME280;31849;55.992;37.252;2023-01-16T09:59:33;98881.72;;;-3.16;64.36
46111;BME280;31849;55.992;37.252;2023-01-16T10:04:38;98886.94;;;-3.13;64.38
46111;BME280;31849;55.992;37.252;2023-01-16T10:09:46;98887.56;;;-3.19;64.23
46111;BME280;31849;55.992;37.252;2023-01-16T10:15:14;98871.91;;;-3.48;65.45
46111;BME280;31849;55.992;37.252;2023-01-16T10:20:41;98841.88;;;-3.57;65.78
46111;BME280;31849;55.992;37.252;2023-01-16T10:25:55;98882.25;;;-3.04;65.08
46111;BME280;31849;55.992;37.252;2023-01-16T10:31:08;98872.00;;;-2.86;64.88
46111;BME280;31849;55.992;37.252;2023-01-16T10:36:14;98873.88;;;-3.02;65.02
46111;BME280;31849;55.992;37.252;2023-01-16T10:41:23;98868.25;;;-2.94;65.16
46111;BME280;31849;55.992;37.252;2023-01-16T10:46:48;98855.53;;;-2.94;65.48
46111;BME280;31849;55.992;37.252;2023-01-16T10:52:10;98852.81;;;-2.78;65.29
46111;BME280;31849;55.992;37.252;2023-01-16T10:57:16;98847.66;;;-3.01;66.05
46111;BME280;31849;55.992;37.252;2023-01-16T11:02:28;98853.81;;;-2.74;65.42
46111;BME280;31849;55.992;37.252;2023-01-16T11:07:33;98851.69;;;-2.63;65.25
46111;BME280;31849;55.992;37.252;2023-01-16T11:12:37;98850.84;;;-2.64;65.42
46111;BME280;31849;55.992;37.252;2023-01-16T11:17:59;98851.69;;;-2.63;65.12
46111;BME280;31849;55.992;37.252;2023-01-16T11:23:22;98852.91;;;-2.75;66.01
46111;BME280;31849;55.992;37.252;2023-01-16T11:28:28;98860.88;;;-2.67;65.11
46111;BME280;31849;55.992;37.252;2023-01-16T11:33:36;98853.50;;;-2.61;64.91
46111;BME280;31849;55.992;37.252;2023-01-16T11:38:43;98850.44;;;-2.73;64.93
46111;BME280;31849;55.992;37.252;2023-01-16T11:44:04;98840.16;;;-2.55;64.34
46111;BME280;31849;55.992;37.252;2023-01-16T11:49:33;98823.50;;;-2.68;64.67
46111;BME280;31849;55.992;37.252;2023-01-16T11:54:38;98826.97;;;-2.66;64.74
46111;BME280;31849;55.992;37.252;2023-01-16T11:59:55;98838.16;;;-2.62;64.87
46111;BME280;31849;55.992;37.252;2023-01-16T12:05:11;98839.09;;;-2.60;65.19
46111;BME280;31849;55.992;37.252;2023-01-16T12:10:42;98854.22;;;-2.63;65.59
46111;BME280;31849;55.992;37.252;2023-01-16T12:15:59;98845.03;;;-2.60;65.41
46111;BME280;31849;55.992;37.252;2023-01-16T12:21:21;98831.16;;;-2.68;66.13
46111;BME280;31849;55.992;37.252;2023-01-16T12:26:29;98838.28;;;-2.59;65.67
46111;BME280;31849;55.992;37.252;2023-01-16T12:31:51;98860.69;;;-2.51;65.01
46111;BME280;31849;55.992;37.252;2023-01-16T12:37:09;98844.66;;;-2.48;65.59
46111;BME280;31849;55.992;37.252;2023-01-16T12:42:27;98836.16;;;-2.49;65.75
46111;BME280;31849;55.992;37.252;2023-01-16T12:47:58;98845.59;;;-2.88;66.54
46111;BME280;31849;55.992;37.252;2023-01-16T12:53:20;98850.81;;;-2.85;66.63
46111;BME280;31849;55.992;37.252;2023-01-16T12:58:28;98855.59;;;-2.93;66.28
46111;BME280;31849;55.992;37.252;2023-01-16T13:03:36;98862.41;;;-2.92;65.89
46111;BME280;31849;55.992;37.252;2023-01-16T13:08:46;98865.63;;;-2.96;66.66
46111;BME280;31849;55.992;37.252;2023-01-16T13:14:04;98869.56;;;-3.04;66.13
46111;BME280;31849;55.992;37.252;2023-01-16T13:19:11;98856.19;;;-2.79;65.84
46111;BME280;31849;55.992;37.252;2023-01-16T13:24:21;98862.00;;;-2.81;65.89
46111;BME280;31849;55.992;37.252;2023-01-16T13:29:30;98875.13;;;-2.92;65.75
46111;BME280;31849;55.992;37.252;2023-01-16T13:34:41;98875.25;;;-2.89;66.07
46111;BME280;31849;55.992;37.252;2023-01-16T13:40:13;98880.94;;;-3.15;66.71
46111;BME280;31849;55.992;37.252;2023-01-16T13:45:28;98882.22;;;-2.85;66.07
46111;BME280;31849;55.992;37.252;2023-01-16T13:50:56;98888.59;;;-2.94;65.90
46111;BME280;31849;55.992;37.252;2023-01-16T13:56:08;98879.84;;;-3.01;66.17
46111;BME280;31849;55.992;37.252;2023-01-16T14:01:35;98881.56;;;-3.00;66.34
46111;BME280;31849;55.992;37.252;2023-01-16T14:06:45;98867.00;;;-3.04;66.33
46111;BME280;31849;55.992;37.252;2023-01-16T14:12:01;98872.81;;;-3.07;66.15
46111;BME280;31849;55.992;37.252;2023-01-16T14:17:05;98881.69;;;-2.97;65.71
46111;BME280;31849;55.992;37.252;2023-01-16T14:22:16;98892.94;;;-2.92;66.00
46111;BME280;31849;55.992;37.252;2023-01-16T14:27:41;98893.38;;;-3.02;65.81
46111;BME280;31849;55.992;37.252;2023-01-16T14:32:47;98889.84;;;-3.45;67.71
46111;BME280;31849;55.992;37.252;2023-01-16T14:37:57;98902.59;;;-3.24;67.20
46111;BME280;31849;55.992;37.252;2023-01-16T14:43:03;98910.75;;;-2.92;65.94
46111;BME280;31849;55.992;37.252;2023-01-16T14:48:35;98899.13;;;-3.06;66.55
46111;BME280;31849;55.992;37.252;2023-01-16T14:53:59;98897.78;;;-2.98;66.07
46111;BME280;31849;55.992;37.252;2023-01-16T14:59:27;98884.34;;;-2.95;66.63
46111;BME280;31849;55.992;37.252;2023-01-16T15:04:40;98899.50;;;-2.97;66.05
46111;BME280;31849;55.992;37.252;2023-01-16T15:09:48;98899.41;;;-3.20;67.31
46111;BME280;31849;55.992;37.252;2023-01-16T15:14:56;98905.22;;;-3.22;67.37
46111;BME280;31849;55.992;37.252;2023-01-16T15:20:22;98898.78;;;-3.14;67.28
46111;BME280;31849;55.992;37.252;2023-01-16T15:31:25;98900.22;;;-3.21;67.61
46111;BME280;31849;55.992;37.252;2023-01-16T15:36:35;98903.28;;;-3.08;67.35
46111;BME280;31849;55.992;37.252;2023-01-16T15:41:39;98905.63;;;-3.13;67.59
46111;BME280;31849;55.992;37.252;2023-01-16T15:47:23;98909.19;;;-2.88;66.89
46111;BME280;31849;55.992;37.252;2023-01-16T15:52:33;98924.28;;;-2.93;66.55
46111;BME280;31849;55.992;37.252;2023-01-16T15:57:43;98898.63;;;-2.97;66.86
46111;BME280;31849;55.992;37.252;2023-01-16T16:02:49;98913.56;;;-2.86;66.76
46111;BME280;31849;55.992;37.252;2023-01-16T16:07:54;98905.31;;;-3.21;67.83
46111;BME280;31849;55.992;37.252;2023-01-16T16:12:58;98910.63;;;-2.95;66.73
46111;BME280;31849;55.992;37.252;2023-01-16T16:18:12;98907.47;;;-3.09;67.67
46111;BME280;31849;55.992;37.252;2023-01-16T16:23:18;98908.38;;;-3.08;67.22
46111;BME280;31849;55.992;37.252;2023-01-16T16:28:25;98916.47;;;-2.76;66.78
46111;BME280;31849;55.992;37.252;2023-01-16T16:33:30;98931.00;;;-2.74;66.65
46111;BME280;31849;55.992;37.252;2023-01-16T16:38:41;98924.88;;;-2.79;66.41
46111;BME280;31849;55.992;37.252;2023-01-16T16:43:47;98932.94;;;-2.68;66.89
46111;BME280;31849;55.992;37.252;2023-01-16T16:48:54;98924.00;;;-2.58;66.24
46111;BME280;31849;55.992;37.252;2023-01-16T16:53:59;98932.88;;;-2.70;66.55
46111;BME280;31849;55.992;37.252;2023-01-16T16:59:14;98924.34;;;-2.91;67.10
46111;BME280;31849;55.992;37.252;2023-01-16T17:04:21;98917.25;;;-2.79;66.93
46111;BME280;31849;55.992;37.252;2023-01-16T17:09:25;98922.53;;;-2.74;67.01
46111;BME280;31849;55.992;37.252;2023-01-16T17:14:33;98911.63;;;-2.91;67.26
46111;BME280;31849;55.992;37.252;2023-01-16T17:19:38;98913.91;;;-2.97;68.17
46111;BME280;31849;55.992;37.252;2023-01-16T17:24:41;98914.34;;;-2.87;67.68
46111;BME280;31849;55.992;37.252;2023-01-16T17:29:45;98899.84;;;-2.89;67.85
46111;BME280;31849;55.992;37.252;2023-01-16T17:34:52;98911.16;;;-3.02;68.39
46111;BME280;31849;55.992;37.252;2023-01-16T17:39:55;98906.41;;;-2.94;68.46
46111;BME280;31849;55.992;37.252;2023-01-16T17:45:25;98902.31;;;-2.91;68.81
46111;BME280;31849;55.992;37.252;2023-01-16T17:50:48;98912.09;;;-3.00;68.99
46111;BME280;31849;55.992;37.252;2023-01-16T17:55:53;98906.28;;;-2.97;68.94
46111;BME280;31849;55.992;37.252;2023-01-16T18:00:59;98905.75;;;-2.69;68.02
46111;BME280;31849;55.992;37.252;2023-01-16T18:06:07;98905.78;;;-2.89;68.79
46111;BME280;31849;55.992;37.252;2023-01-16T18:11:10;98908.28;;;-2.90;69.30
46111;BME280;31849;55.992;37.252;2023-01-16T18:16:31;98916.03;;;-2.87;68.68
46111;BME280;31849;55.992;37.252;2023-01-16T18:21:53;98915.91;;;-2.90;69.18
46111;BME280;31849;55.992;37.252;2023-01-16T18:27:05;98921.25;;;-2.63;68.41
46111;BME280;31849;55.992;37.252;2023-01-16T18:32:09;98913.13;;;-2.75;68.31
46111;BME280;31849;55.992;37.252;2023-01-16T18:37:30;98925.56;;;-2.62;68.22
46111;BME280;31849;55.992;37.252;2023-01-16T18:42:34;98911.88;;;-2.85;69.39
46111;BME280;31849;55.992;37.252;2023-01-16T18:47:55;98927.59;;;-2.74;68.45
46111;BME280;31849;55.992;37.252;2023-01-16T18:53:22;98922.47;;;-2.55;67.95
46111;BME280;31849;55.992;37.252;2023-01-16T18:58:43;98928.03;;;-2.42;67.42
46111;BME280;31849;55.992;37.252;2023-01-16T19:04:04;98929.50;;;-2.49;68.43
46111;BME280;31849;55.992;37.252;2023-01-16T19:09:09;98921.28;;;-2.42;67.74
46111;BME280;31849;55.992;37.252;2023-01-16T19:14:14;98932.53;;;-2.37;67.78
46111;BME280;31849;55.992;37.252;2023-01-16T19:19:18;98942.34;;;-2.46;67.81
46111;BME280;31849;55.992;37.252;2023-01-16T19:24:23;98948.03;;;-2.52;68.09
46111;BME280;31849;55.992;37.252;2023-01-16T19:29:29;98942.41;;;-2.44;67.71
46111;BME280;31849;55.992;37.252;2023-01-16T19:34:33;98939.72;;;-2.48;67.90
46111;BME280;31849;55.992;37.252;2023-01-16T19:39:40;98908.47;;;-2.65;68.19
46111;BME280;31849;55.992;37.252;2023-01-16T19:44:43;98935.44;;;-2.49;68.22
46111;BME280;31849;55.992;37.252;2023-01-16T19:50:05;98930.22;;;-2.31;67.69
46111;BME280;31849;55.992;37.252;2023-01-16T19:55:10;98926.94;;;-2.28;67.20
46111;BME280;31849;55.992;37.252;2023-01-16T20:00:14;98933.50;;;-2.12;66.87
46111;BME280;31849;55.992;37.252;2023-01-16T20:05:17;98938.47;;;-2.36;67.74
46111;BME280;31849;55.992;37.252;2023-01-16T20:10:22;98936.81;;;-2.36;67.46
46111;BME280;31849;55.992;37.252;2023-01-16T20:15:25;98940.53;;;-2.27;67.22
46111;BME280;31849;55.992;37.252;2023-01-16T20:20:29;98928.88;;;-2.43;67.47
46111;BME280;31849;55.992;37.252;2023-01-16T20:25:36;98926.38;;;-2.42;67.51
46111;BME280;31849;55.992;37.252;2023-01-16T20:30:40;98933.75;;;-2.48;67.75
46111;BME280;31849;55.992;37.252;2023-01-16T20:35:58;98932.25;;;-2.22;66.96
46111;BME280;31849;55.992;37.252;2023-01-16T20:41:08;98921.03;;;-2.27;66.94
46111;BME280;31849;55.992;37.252;2023-01-16T20:46:11;98943.44;;;-2.39;67.95
46111;BME280;31849;55.992;37.252;2023-01-16T20:51:15;98949.97;;;-2.46;67.73
46111;BME280;31849;55.992;37.252;2023-01-16T20:56:20;98941.19;;;-2.32;67.22
46111;BME280;31849;55.992;37.252;2023-01-16T21:01:23;98952.34;;;-2.30;67.47
46111;BME280;31849;55.992;37.252;2023-01-16T21:06:27;98946.94;;;-2.37;67.82
46111;BME280;31849;55.992;37.252;2023-01-16T21:11:32;98946.44;;;-2.28;67.32
46111;BME280;31849;55.992;37.252;2023-01-16T21:16:52;98935.50;;;-2.26;67.43
46111;BME280;31849;55.992;37.252;2023-01-16T21:22:13;98944.81;;;-2.26;67.74
46111;BME280;31849;55.992;37.252;2023-01-16T21:27:20;98947.84;;;-2.14;67.26
46111;BME280;31849;55.992;37.252;2023-01-16T21:32:27;98951.00;;;-2.20;67.75
46111;BME280;31849;55.992;37.252;2023-01-16T21:37:31;98952.03;;;-2.16;68.01
46111;BME280;31849;55.992;37.252;2023-01-16T21:42:36;98949.13;;;-2.25;68.10
46111;BME280;31849;55.992;37.252;2023-01-16T21:47:57;98951.84;;;-2.21;68.16
46111;BME280;31849;55.992;37.252;2023-01-16T21:53:02;98944.31;;;-2.18;67.65
46111;BME280;31849;55.992;37.252;2023-01-16T21:58:07;98937.91;;;-2.29;68.33
46111;BME280;31849;55.992;37.252;2023-01-16T22:03:10;98940.97;;;-2.38;68.52
46111;BME280;31849;55.992;37.252;2023-01-16T22:08:33;98938.03;;;-2.26;68.07
46111;BME280;31849;55.992;37.252;2023-01-16T22:13:38;98939.97;;;-2.20;68.23
46111;BME280;31849;55.992;37.252;2023-01-16T22:18:58;98933.00;;;-2.24;68.11
46111;BME280;31849;55.992;37.252;2023-01-16T22:24:05;98937.59;;;-2.16;68.03
46111;BME280;31849;55.992;37.252;2023-01-16T22:29:10;98935.50;;;-2.05;68.08
46111;BME280;31849;55.992;37.252;2023-01-16T22:34:13;98943.84;;;-1.86;67.30
46111;BME280;31849;55.992;37.252;2023-01-16T22:39:17;98949.94;;;-2.04;67.97
46111;BME280;31849;55.992;37.252;2023-01-16T22:44:22;98935.22;;;-2.11;68.14
46111;BME280;31849;55.992;37.252;2023-01-16T22:49:43;98937.34;;;-2.01;67.49
46111;BME280;31849;55.992;37.252;2023-01-16T22:54:48;98937.22;;;-2.04;67.88
46111;BME280;31849;55.992;37.252;2023-01-16T22:59:53;98935.22;;;-2.11;68.68
46111;BME280;31849;55.992;37.252;2023-01-16T23:04:56;98932.00;;;-2.07;68.56
46111;BME280;31849;55.992;37.252;2023-01-16T23:10:00;98928.41;;;-2.12;68.79
46111;BME280;31849;55.992;37.252;2023-01-16T23:15:08;98930.25;;;-2.08;68.71
46111;BME280;31849;55.992;37.252;2023-01-16T23:20:11;98927.84;;;-2.05;68.77
46111;BME280;31849;55.992;37.252;2023-01-16T23:25:15;98932.84;;;-2.06;68.29
46111;BME280;31849;55.992;37.252;2023-01-16T23:30:20;98940.50;;;-2.06;69.07
46111;BME280;31849;55.992;37.252;2023-01-16T23:35:23;98933.47;;;-2.14;68.70
46111;BME280;31849;55.992;37.252;2023-01-16T23:40:27;98914.44;;;-2.22;68.96
46111;BME280;31849;55.992;37.252;2023-01-16T23:45:32;98931.94;;;-2.08;69.10
46111;BME280;31849;55.992;37.252;2023-01-16T23:50:35;98922.81;;;-2.03;68.84
46111;BME280;31849;55.992;37.252;2023-01-16T23:55:38;98927.09;;;-2.02;69.20
